Time;durP1;ratioP1;P1;durP2;ratioP2;P2;SDS_P1;SDS_P2;PMS_P1;PMS_P2;Temp;Humidity;BMP_temperature;BMP_pressure;BME280_temperature;BME280_humidity;BME280_pressure;Samples;Min_cycle;Max_cycle;Signal;HPM_P1;HPM_P2
2022/09/22 00:01:37;;;;;;;3.45;1.73;;;7.80;99.90;;;6.56;100.00;102153.66;5004796;28;20037;-80
2022/09/22 00:04:12;;;;;;;1.70;1.30;;;7.80;99.90;;;6.58;100.00;102154.53;5005541;28;20034;-80
2022/09/22 00:06:56;;;;;;;1.38;1.10;;;7.90;99.90;;;6.63;100.00;102154.50;4999932;28;20030;-81
2022/09/22 00:09:22;;;;;;;3.90;1.25;;;7.90;99.90;;;6.64;100.00;102151.00;4984200;28;20117;-81
2022/09/22 00:11:50;;;;;;;2.05;1.38;;;7.90;99.90;;;6.62;100.00;102152.75;4984302;28;20776;-81
2022/09/22 00:14:24;;;;;;;3.47;1.55;;;7.90;99.90;;;6.55;100.00;102154.56;4984513;28;20043;-81
2022/09/22 00:17:02;;;;;;;2.70;1.58;;;7.80;99.90;;;6.54;100.00;102148.47;4984630;28;20031;-81
2022/09/22 00:19:35;;;;;;;1.85;1.52;;;7.80;99.90;;;6.51;100.00;102151.09;4985386;28;20027;-81
2022/09/22 00:22:06;;;;;;;3.72;1.35;;;7.80;99.90;;;6.49;100.00;102146.75;4998724;28;20043;-82
2022/09/22 00:24:33;;;;;;;3.90;1.40;;;7.80;99.90;;;6.52;100.00;102149.34;4984520;28;20041;-81
2022/09/22 00:27:00;;;;;;;3.33;1.95;;;7.80;99.90;;;6.56;100.00;102149.28;4983479;28;20500;-81
2022/09/22 00:29:35;;;;;;;4.20;1.50;;;7.80;99.90;;;6.60;100.00;102149.28;4969585;28;20027;-80
2022/09/22 00:32:01;;;;;;;7.10;1.63;;;7.90;99.90;;;6.63;100.00;102142.28;4998442;28;20177;-81
2022/09/22 00:34:27;;;;;;;2.28;1.52;;;7.90;99.90;;;6.66;100.00;102151.88;4984088;28;20033;-81
2022/09/22 00:36:53;;;;;;;3.25;1.35;;;7.90;99.90;;;6.69;100.00;102146.59;4996762;28;20019;-82
2022/09/22 00:39:19;;;;;;;2.20;1.40;;;8.00;99.90;;;6.71;100.00;102150.94;4983581;28;20031;-81
2022/09/22 00:41:51;;;;;;;3.90;1.90;;;8.00;99.90;;;6.68;100.00;102147.50;4984158;28;20709;-82
2022/09/22 00:51:43;;;;;;;5.68;2.10;;;8.00;99.90;;;6.64;100.00;102146.63;4894493;29;20655;-80
2022/09/22 00:57:42;;;;;;;2.60;1.92;;;8.00;99.90;;;6.65;100.00;102139.66;4972495;28;20082;-81
2022/09/22 01:00:32;;;;;;;2.72;2.10;;;8.00;99.90;;;6.63;100.00;102142.28;4938042;29;20031;-81
2022/09/22 01:03:30;;;;;;;2.80;1.80;;;8.00;99.90;;;6.70;100.00;102148.34;4917247;29;20062;-80
2022/09/22 01:06:43;;;;;;;4.65;1.83;;;8.00;99.90;;;6.69;100.00;102143.97;4937571;29;20070;-82
2022/09/22 01:09:21;;;;;;;10.77;2.63;;;8.00;99.90;;;6.65;100.00;102156.25;4928823;29;20059;-81
2022/09/22 01:12:14;;;;;;;;;;;;;;;;;;;;;
2022/09/22 01:15:13;;;;;;;2.65;1.90;;;;;;;6.64;100.00;102144.03;4935816;29;20041;-80
2022/09/22 01:18:41;;;;;;;2.65;2.10;;;7.90;99.90;;;6.61;100.00;102136.19;4934997;29;20035;-82
2022/09/22 01:22:12;;;;;;;6.20;1.90;;;7.90;99.90;;;6.65;100.00;102139.66;4941886;29;20134;-81
2022/09/22 01:25:50;;;;;;;4.25;2.13;;;7.90;99.90;;;6.61;100.00;102140.53;4956216;28;20050;-82
2022/09/22 01:29:11;;;;;;;3.30;1.88;;;7.80;99.90;;;6.53;100.00;102138.00;4972743;28;20042;-81
2022/09/22 01:37:17;;;;;;;;;;;;;;;;;;;;;
2022/09/22 01:39:51;;;;;;;4.35;1.80;;;7.70;99.90;;;6.36;100.00;102131.13;4816653;29;20045;-81
2022/09/22 01:43:52;;;;;;;3.08;2.15;;;7.70;99.90;;;6.40;100.00;102131.97;4854163;29;20081;-81
2022/09/22 01:47:02;;;;;;;6.35;2.30;;;7.70;99.90;;;6.42;100.00;102126.75;4810731;29;20050;-81
2022/09/22 01:50:23;;;;;;;6.60;2.47;;;7.70;99.90;;;6.38;100.00;102128.50;4809782;29;20653;-81
2022/09/22 01:53:51;;;;;;;3.70;2.17;;;7.60;99.90;;;6.31;100.00;102130.28;4828696;29;20034;-82
2022/09/22 02:03:52;;;;;;;23.73;2.67;;;;;;;6.20;100.00;102116.41;4912076;29;20056;-81
2022/09/22 02:07:03;;;;;;;3.83;1.52;;;;;;;6.13;100.00;102115.59;4892176;29;20045;-81
2022/09/22 02:10:11;;;;;;;3.50;1.70;;;;;;;6.08;100.00;102116.50;4958047;28;20078;-81
2022/09/22 02:13:23;;;;;;;3.08;2.30;;;7.40;99.90;;;5.95;100.00;102119.16;4951910;28;20043;-81
2022/09/22 02:19:45;;;;;;;;;;;;;;;;;;;;;
2022/09/22 02:22:23;;;;;;;2.80;1.73;;;7.30;99.90;;;5.94;100.00;102130.50;5002154;28;20034;-80
2022/09/22 02:29:22;;;;;;;1101.85;19.30;;;7.20;99.90;;;5.78;100.00;102127.94;4969339;28;20046;-81
2022/09/22 02:35:02;;;;;;;4.07;2.00;;;7.10;99.90;;;5.67;100.00;102123.59;4986436;28;20133;-80
2022/09/22 02:46:12;;;;;;;6.53;2.30;;;7.00;99.90;;;5.60;100.00;102114.06;4875795;29;20041;-80
2022/09/22 02:56:53;;;;;;;17.00;3.47;;;6.90;99.90;;;5.49;100.00;102116.72;4911872;29;20063;-81
2022/09/22 03:00:02;;;;;;;3.80;2.17;;;6.80;99.90;;;5.48;100.00;102121.94;4895796;29;20056;-81
2022/09/22 03:03:02;;;;;;;3.83;2.60;;;;;;;5.51;100.00;102114.09;4933378;29;20043;-82
2022/09/22 03:05:53;;;;;;;5.60;2.70;;;;;;;5.53;100.00;102108.00;4926357;29;20076;-82
2022/09/22 03:08:22;;;;;;;6.43;3.40;;;;;;;5.54;100.00;102111.47;4916376;29;20055;-81
2022/09/22 03:11:43;;;;;;;;;;;;;;;;;;;;;
2022/09/22 03:15:13;;;;;;;5.00;2.65;;;6.90;99.90;;;5.51;100.00;102101.91;4896134;29;20044;-82
2022/09/22 03:17:41;;;;;;;5.57;3.90;;;6.80;99.90;;;5.44;100.00;102092.38;4896494;29;20028;-81
2022/09/22 03:24:03;;;;;;;3.92;2.45;;;6.70;99.90;;;5.39;100.00;102104.56;4864590;29;20044;-81
2022/09/22 03:27:13;;;;;;;8.65;4.45;;;6.70;99.90;;;5.33;100.00;102104.56;4867659;29;20060;-82
2022/09/22 03:29:42;;;;;;;6.13;3.30;;;6.70;99.90;;;5.28;100.00;102104.56;4867222;29;20045;-81
2022/09/22 03:32:52;;;;;;;3.50;2.85;;;6.60;99.90;;;5.25;100.00;102096.75;4861274;29;20508;-82
2022/09/22 03:36:01;;;;;;;7.95;4.28;;;6.60;99.90;;;5.24;100.00;102099.38;4974648;28;20038;-82
2022/09/22 03:39:03;;;;;;;6.70;4.88;;;6.50;99.90;;;5.21;100.00;102091.56;4974698;28;20055;-82
2022/09/22 03:42:35;;;;;;;;;;;;;;;;;;;;;
2022/09/22 03:45:22;;;;;;;8.38;4.90;;;6.50;99.90;;;5.10;100.00;102097.66;4908034;29;20408;-81
2022/09/22 03:48:03;;;;;;;10.52;5.50;;;6.50;99.90;;;5.11;100.00;102094.16;4914320;29;20036;-81
2022/09/22 03:51:02;;;;;;;9.70;5.88;;;6.50;99.90;;;5.11;100.00;102103.75;4909711;29;20048;-81
2022/09/22 03:53:53;;;;;;;14.65;6.75;;;6.40;99.90;;;5.13;100.00;102100.25;4900660;29;20107;-81
2022/09/22 03:56:54;;;;;;;8.98;5.18;;;6.40;99.90;;;5.18;100.00;102096.78;4963499;28;20043;-81
2022/09/22 04:00:22;;;;;;;8.45;5.95;;;6.50;99.90;;;5.26;100.00;102098.50;4949534;28;20083;-80
2022/09/22 04:03:04;;;;;;;10.52;7.18;;;6.60;99.90;;;5.34;100.00;102095.88;4932115;29;20047;-81
2022/09/22 04:05:53;;;;;;;19.67;6.97;;;6.70;99.90;;;5.37;100.00;102100.22;4932627;29;20153;-81
2022/09/22 04:08:22;;;;;;;12.52;7.05;;;6.70;99.90;;;5.36;100.00;102096.75;4957567;28;20628;-81
2022/09/22 04:11:34;;;;;;;10.65;7.00;;;6.70;99.90;;;5.39;100.00;102094.09;4989705;28;20058;-81
2022/09/22 04:14:43;;;;;;;6.72;5.25;;;6.70;99.90;;;5.43;100.00;102093.22;4982206;23;20168;-80
2022/09/22 04:20:32;;;;;;;11.55;7.72;;;;;;;5.44;100.00;102101.91;4981482;28;20418;-81
2022/09/22 04:23:03;;;;;;;15.55;8.85;;;6.80;99.90;;;5.53;100.00;102110.59;4994783;28;20038;-81
2022/09/22 04:25:53;;;;;;;14.43;9.63;;;6.90;99.90;;;5.57;100.00;102113.19;5006902;28;20037;-81
2022/09/22 04:28:45;;;;;;;;;;;;;;;;;;;;;
2022/09/22 04:31:33;;;;;;;17.05;9.50;;;7.00;99.90;;;5.68;100.00;102100.94;4992357;28;20037;-80
2022/09/22 04:34:11;;;;;;;14.70;9.05;;;7.00;99.90;;;5.69;100.00;102106.19;4982887;28;20022;-80
2022/09/22 04:37:22;;;;;;;7.60;6.28;;;7.00;99.90;;;5.71;100.00;102108.78;5010072;28;20450;-81
2022/09/22 04:42:32;;;;;;;15.18;8.68;;;;;;;5.71;100.00;102108.78;4963928;28;20080;-81
2022/09/22 04:45:21;;;;;;;11.05;7.45;;;7.10;99.90;;;5.80;100.00;102106.13;4991987;28;20034;-82
2022/09/22 04:52:24;;;;;;;;;;;;;;;;;;;;;
2022/09/22 04:55:04;;;;;;;16.55;7.38;;;7.10;99.90;;;5.78;100.00;102114.88;4986313;23;20434;-81
2022/09/22 05:01:26;;;;;;;11.48;7.20;;;7.10;99.90;;;5.67;100.00;102125.34;4991160;28;20525;-81
2022/09/22 05:04:01;;;;;;;9.18;7.10;;;7.00;99.90;;;5.64;100.00;102128.88;5021055;23;20104;-81
2022/09/22 05:07:03;;;;;;;9.57;7.25;;;;;;;5.74;100.00;102129.69;4932969;29;20069;-82
2022/09/22 05:10:04;;;;;;;;;;;;;;;;;;;;;
2022/09/22 05:12:35;;;;;;;13.93;8.30;;;7.20;99.90;;;5.94;100.00;102129.63;4933263;29;20027;-82
2022/09/22 05:15:43;;;;;;;11.90;7.80;;;7.30;99.90;;;6.07;100.00;102120.84;4944055;28;20024;-80
2022/09/22 05:18:13;;;;;;;11.80;7.57;;;7.40;99.90;;;6.12;100.00;102111.22;4945050;28;20055;-82
2022/09/22 05:21:22;;;;;;;11.80;7.43;;;7.40;99.90;;;6.24;100.00;102119.88;4948775;28;20039;-82
2022/09/22 05:29:43;;;;;;;9.27;6.68;;;7.60;99.90;;;6.46;100.00;102121.47;4972833;28;20055;-82
2022/09/22 05:42:13;;;;;;;8.18;5.75;;;;;;;6.39;100.00;102129.38;4979803;28;20047;-82
2022/09/22 05:44:53;;;;;;;8.57;6.38;;;7.60;99.90;;;6.44;100.00;102128.47;4988600;28;20050;-81
2022/09/22 05:47:44;;;;;;;11.75;5.90;;;7.70;99.90;;;6.46;100.00;102131.09;4986232;28;20042;-81
2022/09/22 05:50:23;;;;;;;8.43;6.43;;;;;;;6.49;100.00;102128.44;4999055;28;20041;-81
2022/09/22 05:53:20;;;;;;;;;;;;;;;;;;;;;
2022/09/22 05:56:23;;;;;;;9.88;6.43;;;7.70;99.90;;;6.56;100.00;102125.75;4958641;28;20058;-82
2022/09/22 05:59:33;;;;;;;8.40;5.25;;;7.80;99.90;;;6.64;100.00;102124.84;4985601;28;20034;-81
2022/09/22 06:02:43;;;;;;;7.75;5.88;;;7.80;99.90;;;6.67;100.00;102130.03;4993037;28;20054;-82
2022/09/22 06:05:34;;;;;;;;;;;;;;;;;;;;;
2022/09/22 06:08:15;;;;;;;;;;;;;;;;;;;;;
2022/09/22 06:10:44;;;;;;;4.88;3.92;;;;;;;6.72;100.00;102126.50;5009803;28;20029;-82
2022/09/22 06:13:21;;;;;;;7.97;5.20;;;7.90;99.90;;;6.82;100.00;102123.81;4997020;28;20503;-81
2022/09/22 06:16:22;;;;;;;7.85;6.07;;;8.00;99.90;;;6.91;100.00;102115.84;4984795;28;20068;-81
2022/09/22 06:19:51;;;;;;;11.10;6.47;;;8.10;99.90;;;7.07;100.00;102119.22;4985524;28;20503;-81
2022/09/22 06:23:02;;;;;;;9.80;6.25;;;8.30;99.90;;;7.26;100.00;102117.28;4989213;28;20034;-81
2022/09/22 06:26:12;;;;;;;11.23;7.25;;;8.40;99.90;;;7.38;100.00;102120.63;5014605;23;20171;-81
2022/09/22 06:28:52;;;;;;;9.88;7.38;;;8.50;99.90;;;7.47;100.00;102117.03;4994666;28;20039;-80
2022/09/22 06:32:22;;;;;;;12.55;7.75;;;8.60;99.90;;;7.58;100.00;102124.75;5009707;28;20035;-82
2022/09/22 06:36:00;;;;;;;;;;;;;;;;;;;;;
2022/09/22 06:39:00;;;;;;;10.30;6.93;;;;;;;7.88;100.00;102127.91;4962074;28;20068;-81
2022/09/22 06:41:35;;;;;;;13.25;7.80;;;9.00;99.90;;;8.16;100.00;102124.03;5001803;28;20113;-81
2022/09/22 06:44:01;;;;;;;10.27;7.70;;;9.30;99.90;;;8.48;100.00;102121.84;4985642;28;20074;-81
2022/09/22 06:46:45;;;;;;;16.40;7.63;;;9.50;99.90;;;8.82;100.00;102124.78;4985790;28;20093;-82
2022/09/22 06:49:22;;;;;;;11.93;7.38;;;9.80;99.90;;;9.18;100.00;102130.31;4983767;28;20042;-82
2022/09/22 06:52:23;;;;;;;10.90;6.20;;;;;;;9.62;100.00;102129.41;4984244;28;20067;-82
2022/09/22 07:00:02;;;;;;;9.20;6.28;;;11.10;99.90;;;11.06;99.19;102137.56;4936632;28;20093;-83
2022/09/22 07:03:04;;;;;;;12.57;5.22;;;11.70;99.90;;;11.99;94.89;102144.66;4869529;29;20048;-84
2022/09/22 07:06:12;;;;;;;6.82;4.80;;;12.30;99.90;;;12.77;89.74;102146.63;4838495;29;20569;-84
2022/09/22 07:08:51;;;;;;;5.55;3.97;;;;;;;13.89;84.70;102152.41;4914041;29;20139;-84
2022/09/22 07:12:01;;;;;;;7.28;3.83;;;;;;;16.51;75.84;102148.19;4903023;29;20044;-84
2022/09/22 07:14:43;;;;;;;6.07;2.90;;;;;;;20.95;62.91;102150.03;4935050;28;20111;-85
2022/09/22 07:17:21;;;;;;;3.13;2.30;;;18.00;99.90;;;20.69;59.40;102142.81;4949452;28;20089;-83
2022/09/22 07:20:39;;;;;;;3.65;2.30;;;19.50;99.90;;;22.11;54.56;102147.19;4965647;28;20046;-82
2022/09/22 07:23:29;;;;;;;;;;;;;;;;;;;;;
2022/09/22 07:26:44;;;;;;;5.10;2.65;;;21.30;99.90;;;22.14;54.24;102156.88;4974689;28;20047;-83
2022/09/22 07:32:34;;;;;;;5.45;2.67;;;22.30;99.90;;;22.91;54.49;102172.63;4986903;28;20049;-83
2022/09/22 07:35:02;;;;;;;4.32;2.15;;;;;;;24.66;51.15;102174.88;4991243;28;20026;-83
2022/09/22 07:37:45;;;;;;;3.92;2.17;;;24.90;99.90;;;25.86;48.72;102172.66;4999677;28;20111;-83
2022/09/22 07:40:23;;;;;;;2.78;1.92;;;;;;;27.06;46.17;102179.81;4988425;28;20506;-83
2022/09/22 07:43:42;;;;;;;3.03;1.88;;;27.50;97.40;;;27.96;44.70;102179.28;5001594;28;20043;-86
2022/09/22 07:46:12;;;;;;;3.45;1.83;;;28.50;95.70;;;28.39;43.23;102185.00;5003066;28;20039;-86
2022/09/22 07:49:50;;;;;;;3.42;1.60;;;;;;;28.78;41.90;102182.88;4970454;28;20034;-83
2022/09/22 07:52:03;;;;;;;2.08;1.60;;;29.70;94.50;;;29.47;41.17;102193.91;4988138;28;20078;-81
2022/09/22 07:54:42;;;;;;;0.98;0.95;;;;;;;29.88;39.64;102196.88;4986815;28;20487;-82
2022/09/22 08:01:12;;;;;;;1.40;1.20;;;;;;;30.23;38.84;102203.94;4989662;28;20042;-82
2022/09/22 08:07:14;;;;;;;3.83;1.10;;;31.40;87.80;;;30.18;38.80;102221.75;5003067;23;20051;-82
2022/09/22 08:09:42;;;;;;;3.65;1.10;;;31.60;87.80;;;30.35;37.34;102220.81;4946172;28;20073;-83
2022/09/22 08:12:31;;;;;;;2.33;0.90;;;;;;;30.59;37.45;102233.63;4996284;28;20034;-82
2022/09/22 08:15:14;;;;;;;1.42;0.90;;;;;;;30.86;37.06;102235.22;4975108;28;20042;-83
2022/09/22 08:17:43;;;;;;;2.28;1.08;;;;;;;30.86;37.21;102243.38;4977303;28;20081;-82
2022/09/22 08:23:31;;;;;;;2.72;1.30;;;32.40;87.20;;;30.84;37.49;102250.81;4917884;29;20449;-82
2022/09/22 08:26:13;;;;;;;1.98;1.13;;;32.40;86.50;;;30.60;36.56;102245.31;4998108;23;20042;-82
2022/09/22 08:28:53;;;;;;;4.72;1.73;;;;;;;30.45;37.30;102240.56;4995888;28;20054;-82
2022/09/22 08:31:45;;;;;;;3.42;1.08;;;;;;;30.15;37.20;102238.38;4997819;28;20610;-82
2022/09/22 08:34:23;;;;;;;2.10;1.30;;;31.60;85.10;;;29.97;37.95;102239.31;4992410;28;20039;-81
2022/09/22 08:36:54;;;;;;;2.10;1.25;;;31.40;85.20;;;29.85;37.81;102248.78;4977325;28;20402;-83
2022/09/22 08:39:43;;;;;;;3.67;1.13;;;31.20;85.30;;;29.55;37.88;102239.25;4977581;28;20073;-82
2022/09/22 08:42:44;;;;;;;3.17;0.88;;;30.90;85.40;;;29.35;38.24;102238.59;4969999;28;20113;-82
2022/09/22 08:45:51;;;;;;;14.65;1.30;;;30.50;85.10;;;29.12;38.01;102239.13;4989878;23;20059;-82
2022/09/22 08:55:42;;;;;;;1.63;0.90;;;29.20;87.10;;;27.85;39.35;102221.91;4975240;28;20073;-82
2022/09/22 08:58:54;;;;;;;2.78;0.90;;;28.80;87.40;;;27.11;39.92;102220.81;4989671;28;20039;-83
2022/09/22 09:06:11;;;;;;;1.20;0.70;;;27.30;89.10;;;26.04;41.83;102215.22;4982820;23;20065;-81
2022/09/22 09:13:35;;;;;;;;;;;;;;;;;;;;;
2022/09/22 09:16:50;;;;;;;1.98;0.82;;;24.60;91.90;;;23.40;45.98;102197.59;4902504;29;20088;-82
2022/09/22 09:20:01;;;;;;;1.92;0.70;;;23.80;93.20;;;22.51;48.02;102203.34;4898487;29;20037;-82
2022/09/22 09:32:44;;;;;;;;;;;;;;;;;;;;;
2022/09/22 09:40:16;;;;;;;;;;;;;;;;;;;;;
2022/09/22 09:47:16;;;;;;;2.78;0.43;;;21.40;95.30;;;20.43;51.05;102178.44;5004166;23;20046;-82
2022/09/22 10:05:25;;;;;;;2.65;0.25;;;20.80;95.80;;;19.84;51.26;102158.09;5114782;23;20138;-84
2022/09/22 10:08:53;;;;;;;2.50;0.20;;;20.80;95.00;;;19.81;50.16;102158.31;4996403;28;20030;-83
2022/09/22 10:16:03;;;;;;;2.35;0.40;;;20.70;95.60;;;19.79;50.87;102154.03;4860200;29;20759;-81
2022/09/22 10:23:24;;;;;;;;;;;;;;;;;;;;;
2022/09/22 10:29:57;;;;;;;0.73;0.27;;;20.50;95.70;;;19.76;50.43;102155.09;5096214;23;20058;-83
2022/09/22 10:38:44;;;;;;;2.37;0.30;;;20.70;94.90;;;19.96;51.14;102144.94;5025170;23;20065;-82
2022/09/22 10:52:02;;;;;;;1.50;0.25;;;;;;;19.93;49.25;102140.63;4982298;28;20046;-83
2022/09/22 10:55:25;;;;;;;;;;;;;;;;;;;;;
2022/09/22 11:02:14;;;;;;;1.08;0.60;;;20.90;93.20;;;19.82;46.97;102127.94;4982228;28;20090;-82
2022/09/22 11:12:15;;;;;;;3.10;0.30;;;20.60;91.90;;;19.44;47.38;102117.84;4966728;28;20046;-83
2022/09/22 11:12:34;;;;;;;1.17;0.32;;;20.40;90.70;;;19.44;44.54;102114.31;4980267;28;20042;-83
2022/09/22 11:16:04;;;;;;;6.05;0.35;;;20.40;91.70;;;19.60;46.67;102115.06;5049569;23;20116;-83
2022/09/22 11:19:33;;;;;;;2.60;0.40;;;20.40;92.20;;;19.71;46.59;102106.41;4945332;28;20038;-84
2022/09/22 11:22:43;;;;;;;1.42;0.30;;;20.50;93.10;;;19.80;46.73;102108.47;4991484;28;20315;-83
2022/09/22 11:33:53;;;;;;;0.47;0.20;;;20.00;92.60;;;18.71;45.67;102091.09;4921132;29;20100;-83
2022/09/22 11:41:23;;;;;;;0.20;0.20;;;19.30;92.90;;;18.04;48.05;102079.88;4771424;30;20040;-83
2022/09/22 11:44:46;;;;;;;;;;;;;;;;;;;;;
2022/09/22 11:52:16;;;;;;;;;;;;;;;;;;;;;
2022/09/22 11:55:44;;;;;;;4.35;0.40;;;18.90;94.30;;;18.17;50.03;102074.69;4807894;29;20121;-83
2022/09/22 12:08:04;;;;;;;4.05;0.30;;;18.60;93.40;;;17.80;47.75;102064.28;4960846;28;20059;-84
2022/09/22 12:14:24;;;;;;;;;;;;;;;;;;;;;
2022/09/22 12:21:35;;;;;;;;;;;;;;;;;;;;;
2022/09/22 12:32:04;;;;;;;0.75;0.20;;;18.30;93.90;;;17.67;48.83;102041.06;4936111;29;20067;-83
2022/09/22 12:39:15;;;;;;;2.33;0.30;;;18.30;93.50;;;17.56;48.40;102033.69;4936109;29;20055;-81
2022/09/22 12:50:06;;;;;;;;;;;;;;;;;;;;;
2022/09/22 12:52:53;;;;;;;0.77;0.20;;;;;;;16.94;49.72;102017.50;4879830;29;20053;-83
2022/09/22 13:02:48;;;;;;;1.23;0.28;;;;;;;17.39;48.10;102010.66;4972667;28;20043;-82
2022/09/22 13:05:23;;;;;;;0.52;0.20;;;18.20;93.50;;;17.55;48.28;102011.50;4973688;28;20372;-82
2022/09/22 13:07:51;;;;;;;0.85;0.20;;;18.30;94.00;;;17.71;48.73;102022.19;4989529;28;20102;-83
2022/09/22 13:10:23;;;;;;;2.63;0.10;;;18.30;91.30;;;17.49;46.72;102014.50;4989909;28;20034;-84
2022/09/22 13:13:04;;;;;;;0.25;0.20;;;18.40;93.20;;;17.57;48.60;102011.44;4975172;28;20102;-83
2022/09/22 13:15:50;;;;;;;0.17;0.10;;;18.40;92.40;;;17.52;47.73;102008.16;4980257;28;20404;-83
2022/09/22 13:18:43;;;;;;;2.40;0.33;;;18.30;92.30;;;17.44;47.08;102003.25;4974595;28;20034;-83
2022/09/22 13:21:22;;;;;;;0.25;0.10;;;18.30;92.90;;;17.49;48.78;102001.19;4990189;28;20336;-84
2022/09/22 13:24:01;;;;;;;0.20;0.20;;;18.30;94.00;;;17.62;49.10;102007.56;4991040;28;20053;-83
2022/09/22 13:26:40;;;;;;;0.88;0.20;;;18.30;91.90;;;17.64;47.11;102002.13;4989172;28;20058;-83
2022/09/22 13:29:19;;;;;;;3.08;0.20;;;18.40;93.10;;;17.47;47.52;102004.88;4972615;28;20023;-83
2022/09/22 13:31:55;;;;;;;1.00;0.38;;;18.30;92.30;;;17.31;46.91;102000.41;4974157;28;20037;-83
2022/09/22 13:34:38;;;;;;;1.70;0.20;;;18.10;91.70;;;17.07;48.18;101999.09;4991232;28;20050;-82
2022/09/22 13:37:19;;;;;;;1.02;0.30;;;18.10;92.90;;;17.30;48.54;102001.38;4973507;28;20026;-82
2022/09/22 13:39:52;;;;;;;1.55;0.30;;;;;;;17.42;48.12;101997.16;4964466;28;20038;-83
2022/09/22 13:43:00;;;;;;;0.93;0.22;;;18.30;92.90;;;17.57;48.86;101996.31;4987711;28;20039;-83
2022/09/22 13:45:25;;;;;;;0.45;0.20;;;18.40;93.50;;;17.85;48.01;101994.78;4973217;28;20038;-84
2022/09/22 13:48:15;;;;;;;1.05;0.30;;;18.60;90.30;;;17.86;45.54;101996.50;4973907;28;20096;-82
2022/09/22 13:50:56;;;;;;;1.20;0.32;;;18.80;92.30;;;18.07;47.37;101997.06;4973733;28;20031;-82
2022/09/22 13:53:22;;;;;;;0.52;0.20;;;18.90;91.80;;;18.17;46.48;101992.06;4972010;28;20062;-82
2022/09/22 13:55:51;;;;;;;2.22;0.20;;;18.90;90.60;;;18.12;45.66;101989.66;4971927;28;20548;-84
2022/09/22 13:58:33;;;;;;;0.93;0.20;;;19.10;92.50;;;18.31;46.59;102002.75;4970519;28;20027;-84
2022/09/22 14:01:03;;;;;;;0.77;0.17;;;19.10;91.10;;;18.41;45.65;102001.28;4973938;28;20053;-84
2022/09/22 14:03:36;;;;;;;0.95;0.35;;;19.20;92.60;;;18.48;47.40;101988.44;4972667;28;20035;-83
2022/09/22 14:06:14;;;;;;;1.27;0.30;;;19.30;92.70;;;18.61;47.22;101989.41;4971601;28;20050;-83
2022/09/22 14:08:50;;;;;;;0.70;0.30;;;19.50;93.70;;;18.74;48.07;101989.50;4974479;28;20027;-83
2022/09/22 14:11:30;;;;;;;0.85;0.30;;;19.60;92.30;;;18.84;46.54;101987.19;4973334;28;20031;-83
2022/09/22 14:14:25;;;;;;;0.60;0.30;;;19.70;91.90;;;18.94;45.51;101990.13;4970136;28;20090;-84
2022/09/22 14:17:12;;;;;;;0.68;0.30;;;19.70;90.90;;;18.95;45.47;101990.03;4973253;28;20031;-83
2022/09/22 14:19:45;;;;;;;;;;;19.70;92.00;;;18.98;45.36;101989.84;4976833;28;20081;-82
2022/09/22 14:22:30;;;;;;;1.10;0.30;;;19.70;91.30;;;18.63;46.05;101984.81;4979485;28;19979;-83
2022/09/22 14:25:03;;;;;;;0.68;0.20;;;;;;;18.67;46.11;101992.66;4994882;28;20094;-83
2022/09/22 14:27:52;;;;;;;1.23;0.40;;;19.50;91.10;;;18.44;46.43;101987.78;4980741;28;20518;-81
2022/09/22 14:30:27;;;;;;;2.92;0.20;;;19.40;91.80;;;18.39;46.22;101981.84;4982246;28;20062;-83
2022/09/22 14:33:02;;;;;;;2.42;0.32;;;19.30;90.70;;;18.11;46.44;101982.59;4984677;28;20030;-82
2022/09/22 14:35:36;;;;;;;3.28;0.13;;;19.10;91.90;;;18.06;47.01;101975.84;4980283;28;20026;-83
2022/09/22 14:38:06;;;;;;;0.30;0.20;;;19.00;92.50;;;18.01;47.67;101968.09;4980948;28;20118;-83
2022/09/22 14:40:33;;;;;;;0.57;0.20;;;18.80;92.80;;;17.91;48.49;101964.28;4996261;28;20035;-82
2022/09/22 14:43:30;;;;;;;0.82;0.30;;;18.70;93.40;;;17.86;48.99;101969.00;4983625;28;20395;-83
2022/09/22 14:46:46;;;;;;;3.28;0.22;;;18.60;94.40;;;17.65;50.41;101963.91;4985544;28;20066;-82
2022/09/22 14:49:42;;;;;;;0.45;0.20;;;18.40;95.00;;;17.42;51.16;101958.06;4980480;28;20125;-81
2022/09/22 14:52:32;;;;;;;1.80;0.20;;;18.20;95.00;;;17.25;51.88;101958.16;4977452;28;20054;-82
2022/09/22 14:55:06;;;;;;;0.75;0.30;;;18.10;95.90;;;17.11;53.04;101956.25;4962937;28;20027;-83
2022/09/22 14:57:35;;;;;;;1.70;0.30;;;17.90;96.60;;;16.98;54.33;101955.22;4964537;28;20042;-81
2022/09/22 15:02:54;;;;;;;1.05;0.20;;;17.70;97.90;;;16.79;56.31;101956.16;4978062;28;20045;-82
2022/09/22 15:05:28;;;;;;;1.27;0.30;;;17.60;98.70;;;16.69;57.66;101964.69;4977396;28;21051;-83
2022/09/22 15:08:00;;;;;;;0.65;0.25;;;17.50;99.30;;;16.59;58.37;101962.53;4977719;28;20030;-81
2022/09/22 15:10:30;;;;;;;2.15;0.45;;;17.40;99.70;;;16.50;58.73;101970.13;4978105;28;20075;-82
2022/09/22 15:13:18;;;;;;;0.65;0.40;;;17.40;99.50;;;16.41;58.42;101976.75;4960301;28;20041;-82
2022/09/22 15:15:47;;;;;;;4.53;0.60;;;17.30;99.70;;;16.33;58.63;101958.56;4976446;28;20027;-80
2022/09/22 15:18:18;;;;;;;2.08;0.47;;;17.20;99.80;;;16.28;59.47;101959.72;4977277;28;20098;-81
2022/09/22 15:21:10;;;;;;;3.63;0.40;;;17.10;99.90;;;16.22;59.38;101960.91;4977894;28;20087;-80
2022/09/22 15:23:40;;;;;;;2.28;0.38;;;17.10;99.90;;;16.15;59.37;101959.50;4978362;28;20034;-83
2022/09/22 15:26:20;;;;;;;0.90;0.40;;;17.00;99.90;;;16.08;59.62;101958.09;4977985;28;20022;-81
2022/09/22 15:28:47;;;;;;;0.85;0.50;;;16.90;99.90;;;16.02;59.93;101950.41;4967823;28;20110;-82
2022/09/22 15:31:21;;;;;;;0.50;0.30;;;16.90;99.90;;;16.05;60.14;101958.25;4979351;28;20573;-82
2022/09/22 15:33:52;;;;;;;3.33;0.50;;;16.90;99.90;;;16.11;60.78;101953.50;4978938;28;20045;-83
2022/09/22 15:36:21;;;;;;;1.77;0.60;;;17.00;99.90;;;16.19;60.59;101947.78;4971440;28;20493;-82
2022/09/22 15:38:47;;;;;;;1.23;0.40;;;17.00;99.90;;;16.29;59.90;101953.50;4992942;28;20073;-80
2022/09/22 15:41:15;;;;;;;6.57;0.40;;;17.10;99.90;;;16.38;60.23;101955.66;4975533;28;20022;-83
2022/09/22 15:43:44;;;;;;;0.70;0.43;;;17.20;99.90;;;16.44;59.52;101950.03;4972068;28;20440;-82
2022/09/22 15:46:28;;;;;;;2.70;0.57;;;17.30;99.90;;;16.48;58.85;101946.28;4947375;28;20050;-83
2022/09/22 15:49:01;;;;;;;1.75;0.60;;;17.30;99.90;;;16.46;58.33;101941.97;4962421;28;20058;-82
2022/09/22 15:51:29;;;;;;;4.13;0.50;;;17.30;99.90;;;16.44;57.55;101939.41;4963072;28;20034;-80
2022/09/22 15:53:55;;;;;;;3.35;0.40;;;17.20;99.30;;;16.41;56.99;101939.53;4980605;28;20061;-81
2022/09/22 15:56:27;;;;;;;2.10;0.60;;;17.20;99.00;;;16.34;56.81;101930.19;4963537;28;21275;-80
2022/09/22 15:58:54;;;;;;;1.75;0.60;;;17.20;99.00;;;16.25;56.95;101926.19;4994120;28;20043;-82
2022/09/22 16:01:20;;;;;;;2.58;0.70;;;17.00;99.10;;;16.17;57.17;101926.59;4978071;28;20050;-81
2022/09/22 16:03:46;;;;;;;1.05;0.60;;;17.00;99.00;;;16.07;57.24;101919.16;4985698;28;20482;-81
2022/09/22 16:06:16;;;;;;;1.20;0.52;;;16.90;99.10;;;15.96;57.58;101922.34;4980445;28;20040;-82
2022/09/22 16:08:51;;;;;;;1.80;0.80;;;16.80;99.40;;;15.85;58.38;101919.38;4978504;28;20037;-82
2022/09/22 16:11:29;;;;;;;1.75;0.77;;;16.70;99.90;;;15.73;59.00;101924.38;4976760;28;20031;-81
2022/09/22 16:14:03;;;;;;;2.45;0.90;;;16.60;99.90;;;15.58;58.65;101914.47;4962241;28;20070;-81
2022/09/22 16:16:34;;;;;;;2.50;0.88;;;16.50;99.90;;;15.50;59.09;101919.28;4991881;28;20031;-82
2022/09/22 16:19:01;;;;;;;1.73;0.50;;;16.30;99.60;;;15.34;58.51;101914.72;4980622;28;20184;-81
2022/09/22 16:21:35;;;;;;;1.75;0.80;;;16.20;99.90;;;15.20;58.69;101911.84;4946161;28;20037;-81
2022/09/22 16:24:07;;;;;;;0.68;0.60;;;16.10;99.70;;;15.04;58.73;101911.72;4972257;28;20423;-81
2022/09/22 16:26:39;;;;;;;4.65;0.82;;;16.00;99.80;;;14.84;59.26;101894.09;4992910;28;20027;-80
2022/09/22 16:29:07;;;;;;;1.60;0.70;;;15.80;99.90;;;14.71;59.73;101898.22;4972484;28;20035;-81
2022/09/22 16:31:34;;;;;;;6.72;0.70;;;15.70;99.90;;;14.58;60.54;101897.91;4969999;28;20397;-80
2022/09/22 16:34:06;;;;;;;0.70;0.40;;;15.50;99.90;;;14.43;61.04;101899.44;4961710;28;20103;-80
2022/09/22 16:36:35;;;;;;;2.00;0.47;;;15.40;99.90;;;14.29;61.45;101899.16;4978936;28;20046;-81
2022/09/22 16:39:02;;;;;;;0.93;0.40;;;15.30;99.90;;;14.12;62.14;101900.75;4977177;28;20031;-81